Time;durP1;ratioP1;P1;durP2;ratioP2;P2;SDS_P1;SDS_P2;PMS_P1;PMS_P2;Temp;Humidity;BMP_temperature;BMP_pressure;BME280_temperature;BME280_humidity;BME280_pressure;Samples;Min_cycle;Max_cycle;Signal;HPM_P1;HPM_P2
2022/07/01 00:02:01;;;;;;;;;;;25.10;53.20;;;;;;5061620;28;19975;-60
2022/07/01 00:04:28;;;;;;;;;;;25.10;53.20;;;;;;5062631;28;20059;-62
2022/07/01 00:06:55;;;;;;;;;;;25.10;53.30;;;;;;5066196;28;20377;-60
2022/07/01 00:09:22;;;;;;;;;;;25.10;53.50;;;;;;5061190;28;19933;-60
2022/07/01 00:11:49;;;;;;;;;;;25.10;53.60;;;;;;5059303;28;20483;-60
2022/07/01 00:14:16;;;;;;;;;;;25.10;53.80;;;;;;5045064;28;19974;-60
2022/07/01 00:16:42;;;;;;;;;;;25.10;53.40;;;;;;5062726;28;19974;-60
2022/07/01 00:19:11;;;;;;;;;;;25.10;53.90;;;;;;5049873;28;19924;-61
2022/07/01 00:21:38;;;;;;;;;;;25.10;54.00;;;;;;5060386;28;19925;-60
2022/07/01 00:24:04;;;;;;;;;;;25.10;54.00;;;;;;5041966;28;19921;-62
2022/07/01 00:26:31;;;;;;;;;;;25.10;54.10;;;;;;5066610;28;19956;-65
2022/07/01 00:28:58;;;;;;;;;;;25.10;54.10;;;;;;5062210;28;19920;-62
2022/07/01 00:31:25;;;;;;;;;;;25.10;54.20;;;;;;5059743;28;19920;-61
2022/07/01 00:33:52;;;;;;;;;;;25.10;54.10;;;;;;5058398;28;20020;-60
2022/07/01 00:36:20;;;;;;;;;;;25.10;54.20;;;;;;5061212;28;19982;-60
2022/07/01 00:38:46;;;;;;;;;;;25.10;54.10;;;;;;5065672;28;19925;-59
2022/07/01 00:41:13;;;;;;;;;;;25.10;54.20;;;;;;5045036;28;19928;-59
2022/07/01 00:43:40;;;;;;;;;;;25.10;54.20;;;;;;5063188;28;19921;-59
2022/07/01 00:46:07;;;;;;;;;;;25.10;54.40;;;;;;5041336;28;19971;-60
2022/07/01 00:48:34;;;;;;;;;;;25.10;55.00;;;;;;5047359;28;19950;-59
2022/07/01 00:51:01;;;;;;;;;;;25.10;54.70;;;;;;5060612;28;19924;-60
2022/07/01 00:53:29;;;;;;;;;;;25.10;54.70;;;;;;5062817;28;19929;-60
2022/07/01 00:55:56;;;;;;;;;;;25.10;54.50;;;;;;5061995;28;19967;-61
2022/07/01 00:58:23;;;;;;;;;;;25.10;54.50;;;;;;5044205;28;20018;-60
2022/07/01 01:00:50;;;;;;;;;;;25.10;54.60;;;;;;5060098;28;20011;-60
2022/07/01 01:03:17;;;;;;;;;;;25.10;54.70;;;;;;5059502;28;19921;-60
2022/07/01 01:05:43;;;;;;;;;;;25.10;54.90;;;;;;5061006;28;19955;-59
2022/07/01 01:08:10;;;;;;;;;;;25.10;54.80;;;;;;5066129;28;19952;-59
2022/07/01 01:10:39;;;;;;;;;;;25.10;54.80;;;;;;5061161;28;19925;-60
2022/07/01 01:13:05;;;;;;;;;;;25.10;54.80;;;;;;5043906;28;19925;-60
2022/07/01 01:15:32;;;;;;;;;;;25.10;54.90;;;;;;5058628;28;19934;-60
2022/07/01 01:17:59;;;;;;;;;;;25.10;55.00;;;;;;5046921;28;20011;-60
2022/07/01 01:20:28;;;;;;;;;;;25.00;54.80;;;;;;5061915;28;19959;-60
2022/07/01 01:22:57;;;;;;;;;;;25.10;54.80;;;;;;5042958;28;19920;-59
2022/07/01 01:25:24;;;;;;;;;;;25.00;54.90;;;;;;5041399;28;19966;-61
2022/07/01 01:27:52;;;;;;;;;;;25.10;54.90;;;;;;5063094;28;20015;-60
2022/07/01 01:30:19;;;;;;;;;;;25.00;54.90;;;;;;5043924;28;19921;-59
2022/07/01 01:32:46;;;;;;;;;;;25.10;55.00;;;;;;5043366;28;20254;-60
2022/07/01 01:35:14;;;;;;;;;;;25.00;55.00;;;;;;5043219;28;20374;-60
2022/07/01 01:37:41;;;;;;;;;;;25.00;55.00;;;;;;5061514;28;19926;-60
2022/07/01 01:40:10;;;;;;;;;;;25.10;55.10;;;;;;5062910;28;19974;-60
2022/07/01 01:42:37;;;;;;;;;;;25.10;55.10;;;;;;5046438;28;19956;-60
2022/07/01 01:45:04;;;;;;;;;;;25.10;55.10;;;;;;5055354;28;20320;-60
2022/07/01 01:47:31;;;;;;;;;;;25.00;55.00;;;;;;5064073;28;19920;-60
2022/07/01 01:49:58;;;;;;;;;;;25.10;55.10;;;;;;5038587;28;19924;-60
2022/07/01 01:52:25;;;;;;;;;;;25.00;55.10;;;;;;5061668;28;19921;-59
2022/07/01 01:54:51;;;;;;;;;;;25.10;55.10;;;;;;5062896;28;19924;-60
2022/07/01 01:57:20;;;;;;;;;;;25.10;55.10;;;;;;5061304;28;19932;-60
2022/07/01 01:59:46;;;;;;;;;;;25.00;55.20;;;;;;5041132;28;20014;-59
2022/07/01 02:02:14;;;;;;;;;;;25.00;55.20;;;;;;5064841;28;20246;-60
2022/07/01 02:04:41;;;;;;;;;;;25.10;55.30;;;;;;5068239;28;19938;-60
2022/07/01 02:07:10;;;;;;;;;;;25.00;55.30;;;;;;5063492;28;19983;-61
2022/07/01 02:09:37;;;;;;;;;;;25.00;55.30;;;;;;5045919;28;19928;-60
2022/07/01 02:12:04;;;;;;;;;;;25.00;55.40;;;;;;5048316;28;19933;-61
2022/07/01 02:14:32;;;;;;;;;;;25.00;55.40;;;;;;5062876;28;20018;-60
2022/07/01 02:16:59;;;;;;;;;;;25.00;55.40;;;;;;5049379;28;19932;-60
2022/07/01 02:19:25;;;;;;;;;;;25.00;55.50;;;;;;5066814;28;19943;-59
2022/07/01 02:21:52;;;;;;;;;;;25.00;55.50;;;;;;5067545;28;19928;-60
2022/07/01 02:24:19;;;;;;;;;;;25.00;55.60;;;;;;5061127;28;19920;-60
2022/07/01 02:26:46;;;;;;;;;;;25.00;55.60;;;;;;5066574;28;19967;-62
2022/07/01 02:29:13;;;;;;;;;;;25.00;55.60;;;;;;5066864;28;19947;-60
2022/07/01 02:31:41;;;;;;;;;;;25.00;55.60;;;;;;5062950;28;19927;-60
2022/07/01 02:34:08;;;;;;;;;;;25.00;55.60;;;;;;5061093;28;19982;-60
2022/07/01 02:36:34;;;;;;;;;;;25.00;55.60;;;;;;5044599;28;20033;-60
2022/07/01 02:39:01;;;;;;;;;;;25.00;55.80;;;;;;5047705;28;19930;-60
2022/07/01 02:41:28;;;;;;;;;;;25.00;55.70;;;;;;5050197;28;19974;-60
2022/07/01 02:43:54;;;;;;;;;;;25.00;55.70;;;;;;5066178;28;19927;-61
2022/07/01 02:46:21;;;;;;;;;;;25.00;55.80;;;;;;5047866;28;19920;-61
2022/07/01 02:48:50;;;;;;;;;;;25.00;55.80;;;;;;5046087;28;19986;-60
2022/07/01 02:51:16;;;;;;;;;;;25.00;55.80;;;;;;5046520;28;19975;-61
2022/07/01 02:53:43;;;;;;;;;;;25.00;55.80;;;;;;5063091;28;20540;-60
2022/07/01 02:56:10;;;;;;;;;;;25.00;55.80;;;;;;5063964;28;19928;-60
2022/07/01 02:58:36;;;;;;;;;;;25.00;55.90;;;;;;5065266;28;19924;-60
2022/07/01 03:01:03;;;;;;;;;;;25.00;55.90;;;;;;5063009;28;19939;-61
2022/07/01 03:03:30;;;;;;;;;;;25.00;56.00;;;;;;5048039;28;19931;-61
2022/07/01 03:05:59;;;;;;;;;;;25.00;56.00;;;;;;5044530;28;20405;-61
2022/07/01 03:08:25;;;;;;;;;;;25.00;56.10;;;;;;5063369;28;19975;-61
2022/07/01 03:10:52;;;;;;;;;;;25.00;56.10;;;;;;5064677;28;20377;-60
2022/07/01 03:13:20;;;;;;;;;;;25.00;56.10;;;;;;5066176;28;19920;-62
2022/07/01 03:15:46;;;;;;;;;;;25.00;56.10;;;;;;5057454;28;19978;-60
2022/07/01 03:18:13;;;;;;;;;;;25.00;56.10;;;;;;5067103;28;19967;-61
2022/07/01 03:20:40;;;;;;;;;;;25.00;56.20;;;;;;5064015;28;20011;-61
2022/07/01 03:23:08;;;;;;;;;;;25.00;56.20;;;;;;5062675;28;20328;-61
2022/07/01 03:25:36;;;;;;;;;;;25.00;56.30;;;;;;5063892;28;19978;-61
2022/07/01 03:28:03;;;;;;;;;;;25.00;56.30;;;;;;5048876;28;19924;-61
2022/07/01 03:30:30;;;;;;;;;;;25.00;56.30;;;;;;5044870;28;19931;-62
2022/07/01 03:32:57;;;;;;;;;;;25.00;56.40;;;;;;5063429;28;19924;-61
2022/07/01 03:35:40;;;;;;;;;;;25.00;56.30;;;;;;5059515;28;19978;-61
2022/07/01 03:38:07;;;;;;;;;;;25.00;56.40;;;;;;5061509;28;19927;-61
2022/07/01 03:40:35;;;;;;;;;;;25.00;56.30;;;;;;5046741;28;20423;-61
2022/07/01 03:43:02;;;;;;;;;;;25.00;56.40;;;;;;5060715;28;19921;-61
2022/07/01 03:45:29;;;;;;;;;;;25.00;56.30;;;;;;5062653;28;19939;-61
2022/07/01 03:47:55;;;;;;;;;;;25.00;56.40;;;;;;5061507;28;19929;-61
2022/07/01 03:50:22;;;;;;;;;;;25.00;56.40;;;;;;5067097;28;20313;-61
2022/07/01 03:54:29;;;;;;;;;;;25.00;56.40;;;;;;5039006;28;19924;-61
2022/07/01 03:55:37;;;;;;;;;;;25.00;56.40;;;;;;5062058;28;19959;-61
2022/07/01 03:58:04;;;;;;;;;;;24.90;56.30;;;;;;5062471;28;19989;-61
2022/07/01 04:00:31;;;;;;;;;;;25.00;56.40;;;;;;5045428;28;19921;-61
2022/07/01 04:02:57;;;;;;;;;;;24.90;56.40;;;;;;5060044;28;19974;-61
2022/07/01 04:05:25;;;;;;;;;;;24.90;56.50;;;;;;5045894;28;19924;-61
2022/07/01 04:07:51;;;;;;;;;;;25.00;56.50;;;;;;5059500;28;20285;-61
2022/07/01 04:10:18;;;;;;;;;;;24.90;56.50;;;;;;5062647;28;20373;-61
2022/07/01 04:12:46;;;;;;;;;;;25.00;56.50;;;;;;5064663;28;19981;-61
2022/07/01 04:15:13;;;;;;;;;;;24.90;56.50;;;;;;5044794;28;19920;-60
2022/07/01 04:17:41;;;;;;;;;;;24.90;56.50;;;;;;5063855;28;19956;-60
2022/07/01 04:20:08;;;;;;;;;;;24.90;56.50;;;;;;5062925;28;19924;-61
2022/07/01 04:22:35;;;;;;;;;;;24.90;56.60;;;;;;5061230;28;19971;-60
2022/07/01 04:25:04;;;;;;;;;;;24.90;56.50;;;;;;5061402;28;19951;-61
2022/07/01 04:27:32;;;;;;;;;;;24.90;56.60;;;;;;5067518;28;19928;-60
2022/07/01 04:30:04;;;;;;;;;;;24.90;56.60;;;;;;5046217;28;19928;-61
2022/07/01 04:32:32;;;;;;;;;;;24.90;56.50;;;;;;5044988;28;20282;-61
2022/07/01 04:35:00;;;;;;;;;;;24.90;56.50;;;;;;5060568;28;19920;-60
2022/07/01 04:37:27;;;;;;;;;;;24.90;56.60;;;;;;5045863;28;19920;-61
2022/07/01 04:39:54;;;;;;;;;;;24.90;56.50;;;;;;5044353;28;19974;-61
2022/07/01 04:42:22;;;;;;;;;;;24.90;56.60;;;;;;5062850;28;19925;-61
2022/07/01 04:44:48;;;;;;;;;;;24.90;56.60;;;;;;5058306;28;19927;-61
2022/07/01 04:47:16;;;;;;;;;;;24.90;56.50;;;;;;5058175;28;19999;-61
2022/07/01 04:49:43;;;;;;;;;;;24.90;56.50;;;;;;5059477;28;19962;-61
2022/07/01 04:52:10;;;;;;;;;;;24.90;56.50;;;;;;5047909;28;19955;-61
2022/07/01 04:54:37;;;;;;;;;;;24.90;56.40;;;;;;5043681;28;19964;-61
2022/07/01 04:57:04;;;;;;;;;;;24.90;56.40;;;;;;5046431;28;19929;-61
2022/07/01 04:59:30;;;;;;;;;;;24.80;56.30;;;;;;5063065;28;19970;-61
2022/07/01 05:01:58;;;;;;;;;;;24.90;56.40;;;;;;5058232;28;20022;-61
2022/07/01 05:04:28;;;;;;;;;;;24.80;56.30;;;;;;5049184;28;19932;-61
2022/07/01 05:06:55;;;;;;;;;;;24.80;56.20;;;;;;5061480;28;19921;-61
2022/07/01 05:09:21;;;;;;;;;;;24.80;56.20;;;;;;5047097;28;20370;-61
2022/07/01 05:11:48;;;;;;;;;;;24.80;56.10;;;;;;5047077;28;20008;-61
2022/07/01 05:14:15;;;;;;;;;;;24.80;56.20;;;;;;5068248;28;19978;-61
2022/07/01 05:16:42;;;;;;;;;;;24.80;56.10;;;;;;5060766;28;20380;-60
2022/07/01 05:21:58;;;;;;;;;;;24.70;56.00;;;;;;5061517;28;19927;-61
2022/07/01 05:24:25;;;;;;;;;;;24.70;56.00;;;;;;5058630;28;19933;-60
2022/07/01 05:26:51;;;;;;;;;;;24.70;56.00;;;;;;5046110;28;19978;-61
2022/07/01 05:29:18;;;;;;;;;;;24.70;55.90;;;;;;5044573;28;19940;-60
2022/07/01 05:31:45;;;;;;;;;;;24.70;55.80;;;;;;5060417;28;19960;-61
2022/07/01 05:34:12;;;;;;;;;;;24.70;55.80;;;;;;5043674;28;19924;-61
2022/07/01 05:36:38;;;;;;;;;;;24.70;55.80;;;;;;5068527;28;19920;-61
2022/07/01 05:39:06;;;;;;;;;;;24.70;55.70;;;;;;5064951;28;20373;-60
2022/07/01 05:41:34;;;;;;;;;;;24.70;55.60;;;;;;5048049;28;19928;-60
2022/07/01 05:44:01;;;;;;;;;;;24.70;55.60;;;;;;5070599;28;19931;-61
2022/07/01 05:46:27;;;;;;;;;;;24.70;55.40;;;;;;5047093;28;19921;-61
2022/07/01 05:48:54;;;;;;;;;;;24.60;55.30;;;;;;5069859;28;19920;-61
2022/07/01 05:51:21;;;;;;;;;;;24.60;55.20;;;;;;5066544;28;19968;-61
2022/07/01 05:53:48;;;;;;;;;;;24.60;55.10;;;;;;5062831;28;19963;-61
2022/07/01 05:56:16;;;;;;;;;;;24.60;55.10;;;;;;5045744;28;20347;-60
2022/07/01 05:58:43;;;;;;;;;;;24.60;55.00;;;;;;5064271;28;20291;-61
2022/07/01 06:01:10;;;;;;;;;;;24.60;55.00;;;;;;5063397;28;19951;-61
2022/07/01 06:03:37;;;;;;;;;;;24.60;54.90;;;;;;5066401;28;20335;-61
2022/07/01 06:06:03;;;;;;;;;;;24.60;54.80;;;;;;5066099;28;19920;-60
2022/07/01 06:08:30;;;;;;;;;;;24.60;54.70;;;;;;5065561;28;19925;-61
2022/07/01 06:10:57;;;;;;;;;;;24.50;54.60;;;;;;5063193;28;19921;-61
2022/07/01 06:13:25;;;;;;;;;;;24.50;54.60;;;;;;5044132;28;19966;-60
2022/07/01 06:15:52;;;;;;;;;;;24.50;54.60;;;;;;5065404;28;19932;-61
2022/07/01 06:18:19;;;;;;;;;;;24.50;54.60;;;;;;5065664;28;19927;-61
2022/07/01 06:20:46;;;;;;;;;;;24.50;54.60;;;;;;5067576;28;19924;-61
2022/07/01 06:23:13;;;;;;;;;;;24.50;54.50;;;;;;5065779;28;19963;-60
2022/07/01 06:25:39;;;;;;;;;;;24.50;54.60;;;;;;5048018;28;19921;-60
2022/07/01 06:28:06;;;;;;;;;;;24.50;54.60;;;;;;5046373;28;19978;-61
2022/07/01 06:30:34;;;;;;;;;;;24.50;54.60;;;;;;5063548;28;19964;-61
2022/07/01 06:33:01;;;;;;;;;;;24.50;54.60;;;;;;5049641;28;19933;-61
2022/07/01 06:35:28;;;;;;;;;;;24.50;54.60;;;;;;5046943;28;20020;-61
2022/07/01 06:37:55;;;;;;;;;;;24.40;54.50;;;;;;5068620;28;19932;-61
2022/07/01 06:40:21;;;;;;;;;;;24.40;54.40;;;;;;5059945;28;19975;-61
2022/07/01 06:42:49;;;;;;;;;;;24.50;54.50;;;;;;5061090;28;20382;-66
2022/07/01 06:45:16;;;;;;;;;;;24.50;54.50;;;;;;5042292;28;19971;-60
2022/07/01 06:47:45;;;;;;;;;;;24.50;54.50;;;;;;5066207;28;19921;-60
2022/07/01 06:50:12;;;;;;;;;;;24.50;54.40;;;;;;5065027;28;19928;-60
2022/07/01 06:52:39;;;;;;;;;;;24.40;54.30;;;;;;5062583;28;19932;-61
2022/07/01 06:55:06;;;;;;;;;;;24.40;54.20;;;;;;5063223;28;20415;-61
2022/07/01 06:57:33;;;;;;;;;;;24.40;54.20;;;;;;5045735;28;19927;-61
2022/07/01 06:59:59;;;;;;;;;;;24.40;54.20;;;;;;5064518;28;19931;-59
2022/07/01 07:02:26;;;;;;;;;;;24.40;54.20;;;;;;5064349;28;20082;-61
2022/07/01 07:04:57;;;;;;;;;;;24.40;54.20;;;;;;5066142;28;19989;-60
2022/07/01 07:07:24;;;;;;;;;;;24.40;54.10;;;;;;5039186;28;19921;-60
2022/07/01 07:09:53;;;;;;;;;;;24.40;54.10;;;;;;5041783;28;19927;-65
2022/07/01 07:12:20;;;;;;;;;;;24.40;54.10;;;;;;5057541;28;19946;-65
2022/07/01 07:14:47;;;;;;;;;;;24.40;54.10;;;;;;5059157;28;19928;-64
2022/07/01 07:17:14;;;;;;;;;;;24.40;54.10;;;;;;5043550;28;19928;-64
2022/07/01 07:19:40;;;;;;;;;;;24.30;53.90;;;;;;5044865;28;20716;-64
2022/07/01 07:22:09;;;;;;;;;;;24.40;54.00;;;;;;5043455;28;20022;-64
2022/07/01 07:24:35;;;;;;;;;;;24.40;54.00;;;;;;5062419;28;19994;-64
2022/07/01 07:27:02;;;;;;;;;;;24.30;54.50;;;;;;5048004;28;19924;-63
2022/07/01 07:29:29;;;;;;;;;;;24.30;53.90;;;;;;5043078;28;19921;-64
2022/07/01 07:31:56;;;;;;;;;;;24.30;53.90;;;;;;5036897;28;19924;-64
2022/07/01 07:34:23;;;;;;;;;;;24.30;53.90;;;;;;5044463;28;19933;-64
2022/07/01 07:36:51;;;;;;;;;;;24.30;53.90;;;;;;5044274;28;20276;-64
2022/07/01 07:39:19;;;;;;;;;;;24.30;53.80;;;;;;5061090;28;19929;-64
2022/07/01 07:41:46;;;;;;;;;;;24.30;53.80;;;;;;5043310;28;20333;-63
2022/07/01 07:44:13;;;;;;;;;;;24.30;53.80;;;;;;5041814;28;19970;-65
2022/07/01 07:46:40;;;;;;;;;;;24.30;53.80;;;;;;5059844;28;19971;-65
2022/07/01 07:49:07;;;;;;;;;;;24.30;53.90;;;;;;5041847;28;19982;-63
2022/07/01 07:51:34;;;;;;;;;;;24.30;53.80;;;;;;5052049;28;20282;-65
2022/07/01 07:54:02;;;;;;;;;;;24.20;53.70;;;;;;5064362;28;19925;-65
2022/07/01 07:56:30;;;;;;;;;;;24.30;53.80;;;;;;5044099;28;19927;-64
2022/07/01 07:58:57;;;;;;;;;;;24.30;53.80;;;;;;5056850;28;20429;-65
2022/07/01 08:01:24;;;;;;;;;;;24.20;53.60;;;;;;5061757;28;20029;-64
2022/07/01 08:03:51;;;;;;;;;;;24.20;53.70;;;;;;5023840;28;19932;-65
2022/07/01 08:06:18;;;;;;;;;;;24.30;53.70;;;;;;5055707;28;19929;-65
2022/07/01 08:08:45;;;;;;;;;;;24.20;53.70;;;;;;5058614;28;19975;-66
2022/07/01 08:11:12;;;;;;;;;;;24.20;53.60;;;;;;5063046;28;19972;-66
2022/07/01 08:13:40;;;;;;;;;;;24.20;53.60;;;;;;5054367;28;20347;-66
2022/07/01 08:16:06;;;;;;;;;;;24.20;53.60;;;;;;5042024;28;19935;-64
2022/07/01 08:18:33;;;;;;;;;;;24.30;53.60;;;;;;5057641;28;20012;-65
2022/07/01 08:21:00;;;;;;;;;;;24.30;53.60;;;;;;5042962;28;19924;-63
2022/07/01 08:23:27;;;;;;;;;;;24.20;53.50;;;;;;5043537;28;19924;-64
2022/07/01 08:25:54;;;;;;;;;;;24.30;53.60;;;;;;5041814;28;19982;-63
2022/07/01 08:28:21;;;;;;;;;;;24.20;54.00;;;;;;5059433;28;19924;-64
2022/07/01 08:30:49;;;;;;;;;;;24.20;53.40;;;;;;5054892;28;19978;-63
2022/07/01 08:33:15;;;;;;;;;;;24.20;53.40;;;;;;5040901;28;19958;-64
2022/07/01 08:35:43;;;;;;;;;;;24.20;53.40;;;;;;5054396;28;19970;-66
2022/07/01 08:38:10;;;;;;;;;;;24.20;53.40;;;;;;5064411;28;19920;-64
2022/07/01 08:40:37;;;;;;;;;;;24.20;53.40;;;;;;5042438;28;19940;-60
2022/07/01 08:43:04;;;;;;;;;;;24.20;53.40;;;;;;5058531;28;20348;-59
2022/07/01 08:45:31;;;;;;;;;;;24.20;53.30;;;;;;5045861;28;19920;-60
2022/07/01 08:48:00;;;;;;;;;;;24.20;53.40;;;;;;5062338;28;19942;-60
2022/07/01 08:50:27;;;;;;;;;;;24.20;53.30;;;;;;5064500;28;19924;-59
2022/07/01 08:52:54;;;;;;;;;;;24.20;53.30;;;;;;5029925;28;19932;-59
2022/07/01 08:55:21;;;;;;;;;;;24.20;53.60;;;;;;5060988;28;19931;-59
2022/07/01 08:57:48;;;;;;;;;;;24.20;53.30;;;;;;5051899;28;20013;-61
2022/07/01 09:00:15;;;;;;;;;;;24.20;53.20;;;;;;5063580;28;19921;-61
2022/07/01 09:02:51;;;;;;;;;;;24.20;53.20;;;;;;5052883;28;19925;-61
2022/07/01 09:05:20;;;;;;;;;;;24.20;53.20;;;;;;5045141;28;19924;-60
2022/07/01 09:07:47;;;;;;;;;;;24.20;53.20;;;;;;5048304;28;20423;-61
2022/07/01 09:10:14;;;;;;;;;;;24.20;53.20;;;;;;5040921;28;19925;-62
2022/07/01 09:12:41;;;;;;;;;;;24.20;53.10;;;;;;5035526;28;19990;-61
2022/07/01 09:15:19;;;;;;;;;;;24.20;53.20;;;;;;5053414;28;19924;-61
2022/07/01 09:17:46;;;;;;;;;;;24.20;53.20;;;;;;5057281;28;19921;-61
2022/07/01 09:20:18;;;;;;;;;;;24.20;53.20;;;;;;5039208;28;19925;-61
2022/07/01 09:22:58;;;;;;;;;;;24.20;53.20;;;;;;5045405;28;19920;-59
2022/07/01 09:25:27;;;;;;;;;;;24.20;53.20;;;;;;5059549;28;19924;-66
2022/07/01 09:28:03;;;;;;;;;;;24.10;53.10;;;;;;5063188;28;19933;-65
2022/07/01 09:30:29;;;;;;;;;;;24.20;53.20;;;;;;5059721;28;20388;-64
2022/07/01 09:33:05;;;;;;;;;;;24.10;53.10;;;;;;5061809;28;20419;-65
2022/07/01 09:35:32;;;;;;;;;;;24.20;53.20;;;;;;5064021;28;19920;-66
2022/07/01 09:38:00;;;;;;;;;;;24.20;53.20;;;;;;5060299;28;20233;-65
2022/07/01 09:40:27;;;;;;;;;;;24.10;53.20;;;;;;5039733;28;20349;-64
2022/07/01 09:42:54;;;;;;;;;;;24.10;53.10;;;;;;5060443;28;19924;-65
2022/07/01 09:45:21;;;;;;;;;;;24.20;53.20;;;;;;5039572;28;19921;-65
2022/07/01 09:47:48;;;;;;;;;;;24.20;53.20;;;;;;5059451;28;19927;-64
2022/07/01 09:50:15;;;;;;;;;;;24.20;53.20;;;;;;5058980;28;19932;-63
2022/07/01 09:52:42;;;;;;;;;;;24.10;53.10;;;;;;5061930;28;20298;-64
2022/07/01 09:55:12;;;;;;;;;;;24.20;53.10;;;;;;5059953;28;19928;-64
2022/07/01 09:57:40;;;;;;;;;;;24.10;53.00;;;;;;5059110;28;20390;-63
2022/07/01 10:00:07;;;;;;;;;;;24.10;53.00;;;;;;5040287;28;19959;-63
2022/07/01 10:02:34;;;;;;;;;;;24.20;53.10;;;;;;5056794;28;19947;-63
2022/07/01 10:05:03;;;;;;;;;;;24.20;53.10;;;;;;5042012;28;19921;-63
2022/07/01 10:07:33;;;;;;;;;;;24.10;53.00;;;;;;5059127;28;19933;-62
2022/07/01 10:10:04;;;;;;;;;;;24.10;53.00;;;;;;5043950;28;20009;-64
2022/07/01 10:12:36;;;;;;;;;;;24.20;53.10;;;;;;5055782;28;19921;-63
2022/07/01 10:15:05;;;;;;;;;;;24.10;53.00;;;;;;5060130;28;20365;-63
2022/07/01 10:17:33;;;;;;;;;;;24.20;53.10;;;;;;5057700;28;20329;-63
2022/07/01 10:20:06;;;;;;;;;;;24.10;52.90;;;;;;5044217;28;19981;-64
2022/07/01 10:22:35;;;;;;;;;;;24.20;53.00;;;;;;5059777;28;19931;-63
2022/07/01 10:25:17;;;;;;;;;;;24.20;53.00;;;;;;5055921;28;19994;-63
2022/07/01 10:27:45;;;;;;;;;;;24.20;53.00;;;;;;5064497;28;19927;-59
2022/07/01 10:30:15;;;;;;;;;;;24.20;53.10;;;;;;5061458;28;19920;-62
2022/07/01 10:32:42;;;;;;;;;;;24.10;53.00;;;;;;5063690;28;19920;-65
2022/07/01 10:35:09;;;;;;;;;;;24.20;53.10;;;;;;5065296;28;19920;-59
2022/07/01 10:37:36;;;;;;;;;;;24.20;53.20;;;;;;5061841;28;19927;-58
2022/07/01 10:40:06;;;;;;;;;;;24.20;53.20;;;;;;5044259;28;20408;-58
2022/07/01 10:42:36;;;;;;;;;;;24.20;53.30;;;;;;5064564;28;20011;-58
2022/07/01 10:45:08;;;;;;;;;;;24.20;53.40;;;;;;5062963;28;19932;-57
2022/07/01 10:47:35;;;;;;;;;;;24.20;53.60;;;;;;5042890;28;19929;-58
2022/07/01 10:50:09;;;;;;;;;;;24.30;53.80;;;;;;5059092;28;20015;-60
2022/07/01 10:52:36;;;;;;;;;;;24.20;53.90;;;;;;5051582;28;20286;-60
2022/07/01 10:55:03;;;;;;;;;;;24.20;54.00;;;;;;5046944;28;20374;-59
2022/07/01 10:57:32;;;;;;;;;;;24.20;54.20;;;;;;5050528;28;20050;-63
2022/07/01 11:00:18;;;;;;;;;;;24.30;54.30;;;;;;5055990;28;20389;-59
2022/07/01 11:02:46;;;;;;;;;;;24.30;54.30;;;;;;5049870;28;20419;-58
2022/07/01 11:05:13;;;;;;;;;;;24.30;54.40;;;;;;5045696;28;19925;-59
2022/07/01 11:07:42;;;;;;;;;;;24.30;54.50;;;;;;5059890;28;19979;-58
2022/07/01 11:10:10;;;;;;;;;;;24.30;54.40;;;;;;5064112;28;19943;-58
2022/07/01 11:12:36;;;;;;;;;;;24.30;54.50;;;;;;5043264;28;19921;-59
2022/07/01 11:15:05;;;;;;;;;;;24.30;54.50;;;;;;5059879;28;19936;-58
2022/07/01 11:17:32;;;;;;;;;;;24.30;54.50;;;;;;5054419;28;19920;-59
2022/07/01 11:20:01;;;;;;;;;;;24.30;54.50;;;;;;5042648;28;20428;-59
2022/07/01 11:22:29;;;;;;;;;;;24.30;55.00;;;;;;5038597;28;19925;-58
2022/07/01 11:24:56;;;;;;;;;;;24.30;54.40;;;;;;5039619;28;20001;-59
2022/07/01 11:27:24;;;;;;;;;;;24.30;54.30;;;;;;5053522;28;19944;-58
2022/07/01 11:29:51;;;;;;;;;;;24.30;54.30;;;;;;5058182;28;19977;-60
2022/07/01 11:32:24;;;;;;;;;;;24.30;54.30;;;;;;5052627;28;19998;-59
2022/07/01 11:34:51;;;;;;;;;;;24.30;54.30;;;;;;5054032;28;19925;-59
2022/07/01 11:40:15;;;;;;;;;;;24.30;54.20;;;;;;5001827;28;19921;-65
2022/07/01 11:42:42;;;;;;;;;;;24.30;54.10;;;;;;5045534;28;19924;-64
2022/07/01 11:45:10;;;;;;;;;;;24.30;54.10;;;;;;5040693;28;19935;-64
2022/07/01 11:47:37;;;;;;;;;;;24.30;54.00;;;;;;5046435;28;20351;-64
2022/07/01 11:50:04;;;;;;;;;;;24.30;54.00;;;;;;5061779;28;20356;-63
2022/07/01 11:52:32;;;;;;;;;;;24.30;53.90;;;;;;5044475;28;19928;-64
2022/07/01 11:54:59;;;;;;;;;;;24.30;53.90;;;;;;5062415;28;19952;-64
2022/07/01 11:57:26;;;;;;;;;;;24.30;53.90;;;;;;5061452;28;19925;-63
2022/07/01 11:59:53;;;;;;;;;;;24.30;53.80;;;;;;5044924;28;20362;-63
2022/07/01 12:02:21;;;;;;;;;;;24.30;53.80;;;;;;5042567;28;20472;-63
2022/07/01 12:04:48;;;;;;;;;;;24.30;53.80;;;;;;5061021;28;19920;-63
2022/07/01 12:07:16;;;;;;;;;;;24.30;53.70;;;;;;5060002;28;19921;-58
2022/07/01 12:09:44;;;;;;;;;;;24.30;53.70;;;;;;5059956;28;19980;-58
2022/07/01 12:12:15;;;;;;;;;;;24.30;53.70;;;;;;5036425;28;19960;-60
2022/07/01 12:14:49;;;;;;;;;;;24.30;53.70;;;;;;5042446;28;20335;-63
2022/07/01 12:17:16;;;;;;;;;;;24.30;53.60;;;;;;5059669;28;20029;-63
2022/07/01 12:19:43;;;;;;;;;;;24.30;53.60;;;;;;5040576;28;20289;-63
2022/07/01 12:22:11;;;;;;;;;;;24.30;53.60;;;;;;5057289;28;19983;-64
2022/07/01 12:24:37;;;;;;;;;;;24.30;53.60;;;;;;5044196;28;19920;-65
2022/07/01 12:27:06;;;;;;;;;;;24.30;53.60;;;;;;5057805;28;19925;-65
2022/07/01 12:29:49;;;;;;;;;;;24.30;53.50;;;;;;5044073;28;20185;-63
2022/07/01 12:32:17;;;;;;;;;;;24.30;53.50;;;;;;5063556;28;19927;-64
2022/07/01 12:34:45;;;;;;;;;;;24.30;53.50;;;;;;5058601;28;20270;-63
2022/07/01 12:37:13;;;;;;;;;;;24.30;53.50;;;;;;5035564;28;19928;-63
2022/07/01 12:39:44;;;;;;;;;;;24.30;53.50;;;;;;5043557;28;19932;-65
2022/07/01 12:42:21;;;;;;;;;;;24.30;53.50;;;;;;5059093;28;19920;-59
2022/07/01 12:44:48;;;;;;;;;;;24.30;53.50;;;;;;5063936;28;19982;-60
2022/07/01 12:47:18;;;;;;;;;;;24.30;53.40;;;;;;5057595;28;20231;-65
2022/07/01 12:49:45;;;;;;;;;;;24.30;53.40;;;;;;5042124;28;20011;-64
2022/07/01 12:52:23;;;;;;;;;;;24.30;53.40;;;;;;5060428;28;19959;-64
2022/07/01 12:54:50;;;;;;;;;;;24.30;53.40;;;;;;5055672;28;19932;-64
2022/07/01 12:57:17;;;;;;;;;;;24.30;53.40;;;;;;5060928;28;19932;-62
2022/07/01 12:59:45;;;;;;;;;;;24.30;53.40;;;;;;5062098;28;19921;-63
2022/07/01 13:02:12;;;;;;;;;;;24.30;53.30;;;;;;5040669;28;20370;-63
2022/07/01 13:04:39;;;;;;;;;;;24.30;53.30;;;;;;5061139;28;19997;-63
2022/07/01 13:07:06;;;;;;;;;;;24.30;53.20;;;;;;5041703;28;20016;-63
2022/07/01 13:09:33;;;;;;;;;;;24.30;53.20;;;;;;5061116;28;19974;-63
2022/07/01 13:12:00;;;;;;;;;;;24.30;53.20;;;;;;5056214;28;19993;-63
2022/07/01 13:14:26;;;;;;;;;;;24.30;53.20;;;;;;5059703;28;19962;-63
2022/07/01 13:16:55;;;;;;;;;;;24.30;53.10;;;;;;5042581;28;19924;-64
2022/07/01 13:19:21;;;;;;;;;;;24.30;53.00;;;;;;5059066;28;20311;-63
2022/07/01 13:21:48;;;;;;;;;;;24.30;52.90;;;;;;5042646;28;19928;-63
2022/07/01 13:24:15;;;;;;;;;;;24.30;52.80;;;;;;5057113;28;20316;-64
2022/07/01 13:26:42;;;;;;;;;;;24.30;52.70;;;;;;5055766;28;20021;-65
2022/07/01 13:29:08;;;;;;;;;;;24.30;52.60;;;;;;5044034;28;19920;-65
2022/07/01 13:31:35;;;;;;;;;;;24.30;52.50;;;;;;5038402;28;19971;-64
2022/07/01 13:34:04;;;;;;;;;;;24.30;52.50;;;;;;5059805;28;19920;-63
2022/07/01 13:36:31;;;;;;;;;;;24.30;52.50;;;;;;5037837;28;20307;-63
2022/07/01 13:38:58;;;;;;;;;;;24.30;52.40;;;;;;5044543;28;20020;-63
2022/07/01 13:41:25;;;;;;;;;;;24.30;52.50;;;;;;5041840;28;19925;-62
2022/07/01 13:43:51;;;;;;;;;;;24.30;52.40;;;;;;5064096;28;19966;-63
2022/07/01 13:46:18;;;;;;;;;;;24.30;52.40;;;;;;5058229;28;19925;-63
2022/07/01 13:48:45;;;;;;;;;;;24.30;52.30;;;;;;5064527;28;19928;-63
2022/07/01 13:51:13;;;;;;;;;;;24.30;52.30;;;;;;5066884;28;19920;-63
2022/07/01 13:53:40;;;;;;;;;;;24.30;52.20;;;;;;5044950;28;19932;-64
2022/07/01 13:56:07;;;;;;;;;;;24.30;52.20;;;;;;5054154;28;19931;-65
2022/07/01 13:58:34;;;;;;;;;;;24.30;52.10;;;;;;5052368;28;19928;-64
2022/07/01 14:01:00;;;;;;;;;;;24.30;52.60;;;;;;5051813;28;20038;-63
2022/07/01 14:03:27;;;;;;;;;;;24.30;52.10;;;;;;5069256;28;19931;-64
2022/07/01 14:05:54;;;;;;;;;;;24.30;52.00;;;;;;5057961;28;19956;-63
2022/07/01 14:08:22;;;;;;;;;;;24.30;52.00;;;;;;5044353;28;19938;-63
2022/07/01 14:10:49;;;;;;;;;;;24.30;52.00;;;;;;5040105;28;19925;-62
2022/07/01 14:13:20;;;;;;;;;;;24.30;51.90;;;;;;5061793;28;19968;-63
2022/07/01 14:15:47;;;;;;;;;;;24.30;51.90;;;;;;5041674;28;20325;-63
2022/07/01 14:18:14;;;;;;;;;;;24.30;51.80;;;;;;5046415;28;20350;-63
2022/07/01 14:20:40;;;;;;;;;;;24.30;51.60;;;;;;5059223;28;20637;-64
2022/07/01 14:23:07;;;;;;;;;;;24.30;51.50;;;;;;5047639;28;20019;-65
2022/07/01 14:25:35;;;;;;;;;;;24.30;51.40;;;;;;5058157;28;19975;-65